sensor_id;sensor_type;location;lat;lon;timestamp;P1;durP1;ratioP1;P2;durP2;ratioP2
55601;SDS011;59921;51.332;12.410;2022-12-10T00:01:41;5.55;;;4.22;;
55601;SDS011;59921;51.332;12.410;2022-12-10T00:04:08;5.35;;;4.10;;
55601;SDS011;59921;51.332;12.410;2022-12-10T00:06:35;5.30;;;4.25;;
55601;SDS011;59921;51.332;12.410;2022-12-10T00:09:03;5.43;;;4.13;;
55601;SDS011;59921;51.332;12.410;2022-12-10T00:11:30;5.05;;;4.00;;
55601;SDS011;59921;51.332;12.410;2022-12-10T00:13:57;5.28;;;4.30;;
55601;SDS011;59921;51.332;12.410;2022-12-10T00:16:24;5.28;;;4.15;;
55601;SDS011;59921;51.332;12.410;2022-12-10T00:18:51;5.22;;;4.07;;
55601;SDS011;59921;51.332;12.410;2022-12-10T00:21:21;5.78;;;4.47;;
55601;SDS011;59921;51.332;12.410;2022-12-10T00:23:49;5.40;;;4.22;;
55601;SDS011;59921;51.332;12.410;2022-12-10T00:26:19;5.82;;;4.50;;
55601;SDS011;59921;51.332;12.410;2022-12-10T00:28:50;5.95;;;4.80;;
55601;SDS011;59921;51.332;12.410;2022-12-10T00:31:17;4.97;;;4.10;;
55601;SDS011;59921;51.332;12.410;2022-12-10T00:33:47;5.35;;;4.20;;
55601;SDS011;59921;51.332;12.410;2022-12-10T00:36:20;5.30;;;4.20;;
55601;SDS011;59921;51.332;12.410;2022-12-10T00:38:48;5.38;;;4.05;;
55601;SDS011;59921;51.332;12.410;2022-12-10T00:41:14;5.97;;;4.35;;
55601;SDS011;59921;51.332;12.410;2022-12-10T00:43:41;5.53;;;4.63;;
55601;SDS011;59921;51.332;12.410;2022-12-10T00:46:07;5.13;;;4.00;;
55601;SDS011;59921;51.332;12.410;2022-12-10T00:48:33;5.32;;;4.13;;
55601;SDS011;59921;51.332;12.410;2022-12-10T00:50:59;6.18;;;4.05;;
55601;SDS011;59921;51.332;12.410;2022-12-10T00:53:30;5.40;;;4.30;;
55601;SDS011;59921;51.332;12.410;2022-12-10T00:55:57;5.32;;;4.30;;
55601;SDS011;59921;51.332;12.410;2022-12-10T00:58:23;5.13;;;4.00;;
55601;SDS011;59921;51.332;12.410;2022-12-10T01:00:52;5.05;;;4.05;;
55601;SDS011;59921;51.332;12.410;2022-12-10T01:03:17;5.13;;;4.07;;
55601;SDS011;59921;51.332;12.410;2022-12-10T01:05:43;5.80;;;4.30;;
55601;SDS011;59921;51.332;12.410;2022-12-10T01:08:08;6.97;;;4.80;;
55601;SDS011;59921;51.332;12.410;2022-12-10T01:10:34;4.93;;;4.20;;
55601;SDS011;59921;51.332;12.410;2022-12-10T01:13:00;5.20;;;4.15;;
55601;SDS011;59921;51.332;12.410;2022-12-10T01:15:26;5.30;;;4.10;;
55601;SDS011;59921;51.332;12.410;2022-12-10T01:17:51;5.30;;;4.45;;
55601;SDS011;59921;51.332;12.410;2022-12-10T01:20:17;5.32;;;4.10;;
55601;SDS011;59921;51.332;12.410;2022-12-10T01:22:42;5.65;;;4.38;;
55601;SDS011;59921;51.332;12.410;2022-12-10T01:25:07;5.93;;;4.50;;
55601;SDS011;59921;51.332;12.410;2022-12-10T01:27:33;5.38;;;4.07;;
55601;SDS011;59921;51.332;12.410;2022-12-10T01:29:59;5.43;;;4.38;;
55601;SDS011;59921;51.332;12.410;2022-12-10T01:32:24;5.28;;;4.30;;
55601;SDS011;59921;51.332;12.410;2022-12-10T01:34:50;5.53;;;4.10;;
55601;SDS011;59921;51.332;12.410;2022-12-10T01:37:15;6.20;;;4.60;;
55601;SDS011;59921;51.332;12.410;2022-12-10T01:39:41;6.05;;;4.50;;
55601;SDS011;59921;51.332;12.410;2022-12-10T01:42:09;6.70;;;4.80;;
55601;SDS011;59921;51.332;12.410;2022-12-10T01:47:06;5.80;;;4.45;;
55601;SDS011;59921;51.332;12.410;2022-12-10T01:49:33;5.28;;;4.28;;
55601;SDS011;59921;51.332;12.410;2022-12-10T01:52:01;5.55;;;4.55;;
55601;SDS011;59921;51.332;12.410;2022-12-10T01:54:30;6.82;;;4.43;;
55601;SDS011;59921;51.332;12.410;2022-12-10T01:56:58;5.70;;;4.30;;
55601;SDS011;59921;51.332;12.410;2022-12-10T01:59:27;6.28;;;4.45;;
55601;SDS011;59921;51.332;12.410;2022-12-10T02:12:54;6.38;;;4.93;;
55601;SDS011;59921;51.332;12.410;2022-12-10T02:15:30;5.18;;;4.20;;
55601;SDS011;59921;51.332;12.410;2022-12-10T02:18:11;5.47;;;4.65;;
55601;SDS011;59921;51.332;12.410;2022-12-10T02:20:51;5.93;;;4.60;;
55601;SDS011;59921;51.332;12.410;2022-12-10T02:23:28;5.78;;;4.65;;
55601;SDS011;59921;51.332;12.410;2022-12-10T02:26:09;6.13;;;4.65;;
55601;SDS011;59921;51.332;12.410;2022-12-10T02:31:18;5.95;;;4.70;;
55601;SDS011;59921;51.332;12.410;2022-12-10T02:33:49;4.97;;;4.20;;
55601;SDS011;59921;51.332;12.410;2022-12-10T02:36:18;5.90;;;4.60;;
55601;SDS011;59921;51.332;12.410;2022-12-10T02:38:45;6.70;;;5.20;;
55601;SDS011;59921;51.332;12.410;2022-12-10T02:41:14;6.28;;;4.63;;
55601;SDS011;59921;51.332;12.410;2022-12-10T02:43:45;6.20;;;4.90;;
55601;SDS011;59921;51.332;12.410;2022-12-10T02:46:13;5.85;;;4.78;;
55601;SDS011;59921;51.332;12.410;2022-12-10T02:48:39;5.95;;;4.85;;
55601;SDS011;59921;51.332;12.410;2022-12-10T02:51:05;6.03;;;4.68;;
55601;SDS011;59921;51.332;12.410;2022-12-10T02:53:30;6.45;;;5.25;;
55601;SDS011;59921;51.332;12.410;2022-12-10T02:56:19;6.63;;;5.15;;
55601;SDS011;59921;51.332;12.410;2022-12-10T02:58:59;6.35;;;5.00;;
55601;SDS011;59921;51.332;12.410;2022-12-10T03:07:14;6.45;;;5.03;;
55601;SDS011;59921;51.332;12.410;2022-12-10T03:09:47;6.13;;;4.90;;
55601;SDS011;59921;51.332;12.410;2022-12-10T03:12:17;6.00;;;4.85;;
55601;SDS011;59921;51.332;12.410;2022-12-10T03:14:50;5.78;;;4.78;;
55601;SDS011;59921;51.332;12.410;2022-12-10T03:17:16;7.28;;;5.40;;
55601;SDS011;59921;51.332;12.410;2022-12-10T03:19:43;6.22;;;4.93;;
55601;SDS011;59921;51.332;12.410;2022-12-10T03:22:12;6.95;;;5.13;;
55601;SDS011;59921;51.332;12.410;2022-12-10T03:24:39;6.25;;;4.88;;
55601;SDS011;59921;51.332;12.410;2022-12-10T03:27:07;6.20;;;4.85;;
55601;SDS011;59921;51.332;12.410;2022-12-10T03:29:37;6.88;;;5.20;;
55601;SDS011;59921;51.332;12.410;2022-12-10T03:32:06;6.25;;;5.00;;
55601;SDS011;59921;51.332;12.410;2022-12-10T03:34:33;5.60;;;4.53;;
55601;SDS011;59921;51.332;12.410;2022-12-10T03:36:59;6.05;;;5.05;;
55601;SDS011;59921;51.332;12.410;2022-12-10T03:39:26;6.88;;;5.18;;
55601;SDS011;59921;51.332;12.410;2022-12-10T03:41:52;6.57;;;5.10;;
55601;SDS011;59921;51.332;12.410;2022-12-10T03:44:31;6.72;;;5.15;;
55601;SDS011;59921;51.332;12.410;2022-12-10T03:46:59;6.93;;;5.32;;
55601;SDS011;59921;51.332;12.410;2022-12-10T03:49:26;6.70;;;5.15;;
55601;SDS011;59921;51.332;12.410;2022-12-10T03:51:52;6.55;;;5.38;;
55601;SDS011;59921;51.332;12.410;2022-12-10T03:54:17;6.97;;;5.28;;
55601;SDS011;59921;51.332;12.410;2022-12-10T03:56:43;6.57;;;5.20;;
55601;SDS011;59921;51.332;12.410;2022-12-10T03:59:08;6.40;;;4.97;;
55601;SDS011;59921;51.332;12.410;2022-12-10T04:01:34;6.00;;;4.93;;
55601;SDS011;59921;51.332;12.410;2022-12-10T04:03:59;6.50;;;5.30;;
55601;SDS011;59921;51.332;12.410;2022-12-10T04:06:25;6.68;;;5.28;;
55601;SDS011;59921;51.332;12.410;2022-12-10T04:08:51;6.68;;;4.85;;
55601;SDS011;59921;51.332;12.410;2022-12-10T04:11:18;6.78;;;5.38;;
55601;SDS011;59921;51.332;12.410;2022-12-10T04:13:43;7.15;;;5.32;;
55601;SDS011;59921;51.332;12.410;2022-12-10T04:16:27;6.63;;;5.45;;
55601;SDS011;59921;51.332;12.410;2022-12-10T04:18:58;6.40;;;5.15;;
55601;SDS011;59921;51.332;12.410;2022-12-10T04:21:29;7.78;;;5.72;;
55601;SDS011;59921;51.332;12.410;2022-12-10T04:24:15;6.28;;;5.13;;
55601;SDS011;59921;51.332;12.410;2022-12-10T04:27:02;6.35;;;5.15;;
55601;SDS011;59921;51.332;12.410;2022-12-10T04:29:31;6.05;;;5.03;;
55601;SDS011;59921;51.332;12.410;2022-12-10T04:31:57;6.88;;;5.30;;
55601;SDS011;59921;51.332;12.410;2022-12-10T04:34:24;5.88;;;4.90;;
55601;SDS011;59921;51.332;12.410;2022-12-10T04:36:50;7.15;;;5.40;;
55601;SDS011;59921;51.332;12.410;2022-12-10T04:39:16;6.22;;;4.82;;
55601;SDS011;59921;51.332;12.410;2022-12-10T04:41:43;6.82;;;5.05;;
55601;SDS011;59921;51.332;12.410;2022-12-10T04:44:11;5.97;;;4.93;;
55601;SDS011;59921;51.332;12.410;2022-12-10T04:46:37;6.47;;;4.82;;
55601;SDS011;59921;51.332;12.410;2022-12-10T04:49:03;6.38;;;4.93;;
55601;SDS011;59921;51.332;12.410;2022-12-10T04:51:30;6.00;;;4.82;;
55601;SDS011;59921;51.332;12.410;2022-12-10T04:53:55;6.38;;;4.97;;
55601;SDS011;59921;51.332;12.410;2022-12-10T04:56:21;6.10;;;5.05;;
55601;SDS011;59921;51.332;12.410;2022-12-10T04:58:47;6.38;;;4.90;;
55601;SDS011;59921;51.332;12.410;2022-12-10T05:01:13;6.18;;;4.88;;
55601;SDS011;59921;51.332;12.410;2022-12-10T05:03:39;6.53;;;5.07;;
55601;SDS011;59921;51.332;12.410;2022-12-10T05:06:06;6.13;;;5.05;;
55601;SDS011;59921;51.332;12.410;2022-12-10T05:08:34;6.28;;;4.90;;
55601;SDS011;59921;51.332;12.410;2022-12-10T05:11:11;6.60;;;5.53;;
55601;SDS011;59921;51.332;12.410;2022-12-10T05:13:38;6.53;;;5.28;;
55601;SDS011;59921;51.332;12.410;2022-12-10T05:16:05;7.38;;;5.03;;
55601;SDS011;59921;51.332;12.410;2022-12-10T05:18:32;6.20;;;5.00;;
55601;SDS011;59921;51.332;12.410;2022-12-10T05:21:02;5.93;;;4.80;;
55601;SDS011;59921;51.332;12.410;2022-12-10T05:23:29;6.20;;;5.07;;
55601;SDS011;59921;51.332;12.410;2022-12-10T05:25:59;6.32;;;4.78;;
55601;SDS011;59921;51.332;12.410;2022-12-10T05:28:29;7.03;;;5.33;;
55601;SDS011;59921;51.332;12.410;2022-12-10T05:30:56;6.88;;;5.53;;
55601;SDS011;59921;51.332;12.410;2022-12-10T05:33:23;5.97;;;4.97;;
55601;SDS011;59921;51.332;12.410;2022-12-10T05:35:55;6.70;;;5.50;;
55601;SDS011;59921;51.332;12.410;2022-12-10T05:38:26;6.90;;;5.07;;
55601;SDS011;59921;51.332;12.410;2022-12-10T05:40:52;6.43;;;4.97;;
55601;SDS011;59921;51.332;12.410;2022-12-10T05:43:18;6.63;;;5.22;;
55601;SDS011;59921;51.332;12.410;2022-12-10T05:45:44;6.00;;;4.90;;
55601;SDS011;59921;51.332;12.410;2022-12-10T05:48:11;6.78;;;5.35;;
55601;SDS011;59921;51.332;12.410;2022-12-10T05:50:37;6.00;;;4.75;;
55601;SDS011;59921;51.332;12.410;2022-12-10T05:53:03;6.40;;;5.05;;
55601;SDS011;59921;51.332;12.410;2022-12-10T05:55:28;6.57;;;5.10;;
55601;SDS011;59921;51.332;12.410;2022-12-10T05:57:56;6.55;;;5.10;;
55601;SDS011;59921;51.332;12.410;2022-12-10T06:00:22;5.95;;;4.75;;
55601;SDS011;59921;51.332;12.410;2022-12-10T06:02:51;6.28;;;5.07;;
55601;SDS011;59921;51.332;12.410;2022-12-10T06:05:17;7.03;;;5.22;;
55601;SDS011;59921;51.332;12.410;2022-12-10T06:07:42;5.88;;;5.05;;
55601;SDS011;59921;51.332;12.410;2022-12-10T06:10:08;6.15;;;4.93;;
55601;SDS011;59921;51.332;12.410;2022-12-10T06:12:34;6.38;;;5.07;;
55601;SDS011;59921;51.332;12.410;2022-12-10T06:14:59;7.20;;;5.80;;
55601;SDS011;59921;51.332;12.410;2022-12-10T06:17:25;6.07;;;4.93;;
55601;SDS011;59921;51.332;12.410;2022-12-10T06:19:50;7.22;;;5.20;;
55601;SDS011;59921;51.332;12.410;2022-12-10T06:22:16;5.80;;;4.93;;
55601;SDS011;59921;51.332;12.410;2022-12-10T06:24:41;6.70;;;5.00;;
55601;SDS011;59921;51.332;12.410;2022-12-10T06:27:07;6.13;;;4.95;;
55601;SDS011;59921;51.332;12.410;2022-12-10T06:29:32;6.05;;;5.00;;
55601;SDS011;59921;51.332;12.410;2022-12-10T06:31:58;6.60;;;5.22;;
55601;SDS011;59921;51.332;12.410;2022-12-10T06:34:23;7.07;;;5.40;;
55601;SDS011;59921;51.332;12.410;2022-12-10T06:36:49;6.90;;;5.22;;
55601;SDS011;59921;51.332;12.410;2022-12-10T06:39:14;6.32;;;5.13;;
55601;SDS011;59921;51.332;12.410;2022-12-10T06:41:40;7.10;;;5.18;;
55601;SDS011;59921;51.332;12.410;2022-12-10T06:44:09;6.82;;;5.10;;
55601;SDS011;59921;51.332;12.410;2022-12-10T06:46:35;7.07;;;5.35;;
55601;SDS011;59921;51.332;12.410;2022-12-10T06:49:01;6.90;;;5.20;;
55601;SDS011;59921;51.332;12.410;2022-12-10T06:51:27;6.50;;;5.22;;
55601;SDS011;59921;51.332;12.410;2022-12-10T06:53:52;6.60;;;5.45;;
55601;SDS011;59921;51.332;12.410;2022-12-10T06:56:18;6.93;;;5.47;;
55601;SDS011;59921;51.332;12.410;2022-12-10T06:58:44;6.57;;;5.18;;
55601;SDS011;59921;51.332;12.410;2022-12-10T07:01:11;6.43;;;5.13;;
55601;SDS011;59921;51.332;12.410;2022-12-10T07:03:39;6.03;;;4.68;;
55601;SDS011;59921;51.332;12.410;2022-12-10T07:06:05;6.65;;;5.38;;
55601;SDS011;59921;51.332;12.410;2022-12-10T07:08:33;6.65;;;4.97;;
55601;SDS011;59921;51.332;12.410;2022-12-10T07:10:59;6.55;;;5.00;;
55601;SDS011;59921;51.332;12.410;2022-12-10T07:13:27;5.97;;;5.15;;
55601;SDS011;59921;51.332;12.410;2022-12-10T07:15:53;6.45;;;5.10;;
55601;SDS011;59921;51.332;12.410;2022-12-10T07:18:18;6.80;;;5.47;;
55601;SDS011;59921;51.332;12.410;2022-12-10T07:20:44;6.38;;;5.20;;
55601;SDS011;59921;51.332;12.410;2022-12-10T07:23:09;6.97;;;5.25;;
55601;SDS011;59921;51.332;12.410;2022-12-10T07:25:35;6.72;;;5.43;;
55601;SDS011;59921;51.332;12.410;2022-12-10T07:28:00;6.40;;;4.90;;
55601;SDS011;59921;51.332;12.410;2022-12-10T07:30:26;5.85;;;4.80;;
55601;SDS011;59921;51.332;12.410;2022-12-10T07:32:51;6.45;;;5.22;;
55601;SDS011;59921;51.332;12.410;2022-12-10T07:35:17;6.10;;;4.80;;
55601;SDS011;59921;51.332;12.410;2022-12-10T07:37:42;6.80;;;4.97;;
55601;SDS011;59921;51.332;12.410;2022-12-10T07:40:08;6.40;;;5.18;;
55601;SDS011;59921;51.332;12.410;2022-12-10T07:42:34;6.53;;;5.07;;
55601;SDS011;59921;51.332;12.410;2022-12-10T07:44:59;6.75;;;5.35;;
55601;SDS011;59921;51.332;12.410;2022-12-10T07:47:25;5.95;;;4.95;;
55601;SDS011;59921;51.332;12.410;2022-12-10T07:49:50;6.68;;;5.10;;
55601;SDS011;59921;51.332;12.410;2022-12-10T07:52:16;6.72;;;4.88;;
55601;SDS011;59921;51.332;12.410;2022-12-10T07:54:42;7.00;;;4.82;;
55601;SDS011;59921;51.332;12.410;2022-12-10T07:57:08;6.50;;;4.80;;
55601;SDS011;59921;51.332;12.410;2022-12-10T07:59:34;6.50;;;4.93;;
55601;SDS011;59921;51.332;12.410;2022-12-10T08:01:59;6.53;;;4.90;;
55601;SDS011;59921;51.332;12.410;2022-12-10T08:04:27;6.60;;;5.20;;
55601;SDS011;59921;51.332;12.410;2022-12-10T08:06:54;6.25;;;4.95;;
55601;SDS011;59921;51.332;12.410;2022-12-10T08:09:20;5.82;;;4.70;;
55601;SDS011;59921;51.332;12.410;2022-12-10T08:11:45;6.22;;;4.85;;
55601;SDS011;59921;51.332;12.410;2022-12-10T08:14:11;6.45;;;4.95;;
55601;SDS011;59921;51.332;12.410;2022-12-10T08:16:36;6.15;;;5.07;;
55601;SDS011;59921;51.332;12.410;2022-12-10T08:19:02;6.53;;;4.60;;
55601;SDS011;59921;51.332;12.410;2022-12-10T08:21:29;6.97;;;5.13;;
55601;SDS011;59921;51.332;12.410;2022-12-10T08:23:55;5.57;;;4.82;;
55601;SDS011;59921;51.332;12.410;2022-12-10T08:26:22;6.35;;;5.00;;
55601;SDS011;59921;51.332;12.410;2022-12-10T08:28:49;6.43;;;4.85;;
55601;SDS011;59921;51.332;12.410;2022-12-10T08:31:16;6.85;;;5.07;;
55601;SDS011;59921;51.332;12.410;2022-12-10T08:33:42;6.45;;;4.85;;
55601;SDS011;59921;51.332;12.410;2022-12-10T08:36:09;6.45;;;5.13;;
55601;SDS011;59921;51.332;12.410;2022-12-10T08:38:37;6.40;;;4.63;;
55601;SDS011;59921;51.332;12.410;2022-12-10T08:41:10;7.10;;;5.38;;
55601;SDS011;59921;51.332;12.410;2022-12-10T08:43:46;6.73;;;5.23;;
55601;SDS011;59921;51.332;12.410;2022-12-10T08:46:13;6.15;;;4.90;;
55601;SDS011;59921;51.332;12.410;2022-12-10T08:48:39;6.50;;;5.03;;
55601;SDS011;59921;51.332;12.410;2022-12-10T08:51:06;6.35;;;4.95;;
55601;SDS011;59921;51.332;12.410;2022-12-10T08:53:33;6.28;;;4.90;;
55601;SDS011;59921;51.332;12.410;2022-12-10T08:55:59;6.78;;;5.10;;
55601;SDS011;59921;51.332;12.410;2022-12-10T08:58:24;6.78;;;5.10;;
55601;SDS011;59921;51.332;12.410;2022-12-10T09:00:50;6.68;;;5.00;;
55601;SDS011;59921;51.332;12.410;2022-12-10T09:03:16;6.60;;;5.18;;
55601;SDS011;59921;51.332;12.410;2022-12-10T09:05:42;6.18;;;4.85;;
55601;SDS011;59921;51.332;12.410;2022-12-10T09:08:08;6.20;;;5.05;;
55601;SDS011;59921;51.332;12.410;2022-12-10T09:10:37;7.45;;;5.43;;
55601;SDS011;59921;51.332;12.410;2022-12-10T09:13:03;7.40;;;5.40;;
55601;SDS011;59921;51.332;12.410;2022-12-10T09:15:29;6.82;;;5.30;;
55601;SDS011;59921;51.332;12.410;2022-12-10T09:17:55;6.78;;;5.35;;
55601;SDS011;59921;51.332;12.410;2022-12-10T09:20:20;7.45;;;5.80;;
55601;SDS011;59921;51.332;12.410;2022-12-10T09:22:46;6.70;;;5.07;;
55601;SDS011;59921;51.332;12.410;2022-12-10T09:25:11;7.03;;;5.53;;
55601;SDS011;59921;51.332;12.410;2022-12-10T09:27:40;7.47;;;5.65;;
55601;SDS011;59921;51.332;12.410;2022-12-10T09:30:07;7.57;;;5.55;;
55601;SDS011;59921;51.332;12.410;2022-12-10T09:32:33;6.65;;;5.35;;
55601;SDS011;59921;51.332;12.410;2022-12-10T09:34:58;6.25;;;5.03;;
55601;SDS011;59921;51.332;12.410;2022-12-10T09:37:24;7.35;;;5.80;;
55601;SDS011;59921;51.332;12.410;2022-12-10T09:39:49;6.35;;;4.90;;
55601;SDS011;59921;51.332;12.410;2022-12-10T09:45:02;6.60;;;5.35;;
55601;SDS011;59921;51.332;12.410;2022-12-10T09:47:32;6.25;;;5.00;;
55601;SDS011;59921;51.332;12.410;2022-12-10T09:50:19;6.95;;;5.70;;
55601;SDS011;59921;51.332;12.410;2022-12-10T09:52:49;6.78;;;5.28;;
55601;SDS011;59921;51.332;12.410;2022-12-10T09:55:20;7.00;;;5.72;;
55601;SDS011;59921;51.332;12.410;2022-12-10T09:57:55;6.82;;;5.35;;
55601;SDS011;59921;51.332;12.410;2022-12-10T10:00:40;6.38;;;5.30;;
55601;SDS011;59921;51.332;12.410;2022-12-10T10:03:10;6.50;;;4.70;;
55601;SDS011;59921;51.332;12.410;2022-12-10T10:05:48;6.80;;;5.28;;
55601;SDS011;59921;51.332;12.410;2022-12-10T10:10:50;6.82;;;5.10;;
55601;SDS011;59921;51.332;12.410;2022-12-10T10:16:12;7.68;;;5.55;;
55601;SDS011;59921;51.332;12.410;2022-12-10T10:18:39;6.30;;;5.03;;
55601;SDS011;59921;51.332;12.410;2022-12-10T10:21:25;6.97;;;5.03;;
55601;SDS011;59921;51.332;12.410;2022-12-10T10:23:53;6.65;;;5.30;;
55601;SDS011;59921;51.332;12.410;2022-12-10T10:26:23;7.35;;;5.45;;
55601;SDS011;59921;51.332;12.410;2022-12-10T10:28:53;6.80;;;5.32;;
55601;SDS011;59921;51.332;12.410;2022-12-10T10:31:24;6.55;;;5.35;;
55601;SDS011;59921;51.332;12.410;2022-12-10T10:33:52;6.68;;;5.13;;
55601;SDS011;59921;51.332;12.410;2022-12-10T10:36:23;6.68;;;5.07;;
55601;SDS011;59921;51.332;12.410;2022-12-10T10:39:10;6.70;;;5.15;;
55601;SDS011;59921;51.332;12.410;2022-12-10T10:41:42;7.65;;;5.20;;
55601;SDS011;59921;51.332;12.410;2022-12-10T10:44:18;6.72;;;5.20;;
55601;SDS011;59921;51.332;12.410;2022-12-10T10:46:46;7.20;;;5.57;;
55601;SDS011;59921;51.332;12.410;2022-12-10T10:49:26;6.93;;;5.18;;
55601;SDS011;59921;51.332;12.410;2022-12-10T10:51:52;6.85;;;5.32;;
55601;SDS011;59921;51.332;12.410;2022-12-10T10:57:50;6.80;;;5.32;;
55601;SDS011;59921;51.332;12.410;2022-12-10T11:00:22;6.70;;;5.28;;
55601;SDS011;59921;51.332;12.410;2022-12-10T11:02:48;7.00;;;5.38;;
55601;SDS011;59921;51.332;12.410;2022-12-10T11:05:17;6.78;;;5.40;;
55601;SDS011;59921;51.332;12.410;2022-12-10T11:07:49;7.05;;;4.82;;
55601;SDS011;59921;51.332;12.410;2022-12-10T11:10:23;6.72;;;5.50;;
55601;SDS011;59921;51.332;12.410;2022-12-10T11:15:38;7.00;;;5.25;;
55601;SDS011;59921;51.332;12.410;2022-12-10T11:18:25;7.10;;;5.40;;
55601;SDS011;59921;51.332;12.410;2022-12-10T11:23:36;6.63;;;5.32;;
55601;SDS011;59921;51.332;12.410;2022-12-10T11:26:09;7.40;;;4.97;;
55601;SDS011;59921;51.332;12.410;2022-12-10T11:29:04;6.93;;;5.13;;
55601;SDS011;59921;51.332;12.410;2022-12-10T11:32:07;6.45;;;5.38;;
55601;SDS011;59921;51.332;12.410;2022-12-10T11:34:52;7.22;;;5.30;;
55601;SDS011;59921;51.332;12.410;2022-12-10T11:37:36;7.57;;;5.53;;
55601;SDS011;59921;51.332;12.410;2022-12-10T11:42:55;7.57;;;6.20;;
55601;SDS011;59921;51.332;12.410;2022-12-10T11:51:04;9.25;;;6.72;;
55601;SDS011;59921;51.332;12.410;2022-12-10T12:01:52;9.25;;;6.90;;
55601;SDS011;59921;51.332;12.410;2022-12-10T12:04:52;10.80;;;7.05;;
55601;SDS011;59921;51.332;12.410;2022-12-10T12:07:39;9.57;;;6.82;;
55601;SDS011;59921;51.332;12.410;2022-12-10T12:10:31;9.30;;;6.93;;
55601;SDS011;59921;51.332;12.410;2022-12-10T12:19:07;8.93;;;6.55;;
55601;SDS011;59921;51.332;12.410;2022-12-10T12:21:38;9.88;;;7.10;;
55601;SDS011;59921;51.332;12.410;2022-12-10T12:24:08;10.50;;;7.28;;
55601;SDS011;59921;51.332;12.410;2022-12-10T12:27:00;8.95;;;6.60;;
55601;SDS011;59921;51.332;12.410;2022-12-10T12:29:36;9.75;;;6.95;;
55601;SDS011;59921;51.332;12.410;2022-12-10T12:32:21;10.30;;;7.47;;
55601;SDS011;59921;51.332;12.410;2022-12-10T12:35:02;10.70;;;6.72;;
55601;SDS011;59921;51.332;12.410;2022-12-10T12:37:46;11.15;;;6.95;;
55601;SDS011;59921;51.332;12.410;2022-12-10T12:40:25;10.57;;;7.20;;
55601;SDS011;59921;51.332;12.410;2022-12-10T12:42:56;9.57;;;6.75;;
55601;SDS011;59921;51.332;12.410;2022-12-10T12:45:41;8.70;;;6.57;;
55601;SDS011;59921;51.332;12.410;2022-12-10T12:51:09;8.77;;;6.68;;
55601;SDS011;59921;51.332;12.410;2022-12-10T12:53:36;8.73;;;6.30;;
55601;SDS011;59921;51.332;12.410;2022-12-10T12:56:13;10.88;;;6.95;;
55601;SDS011;59921;51.332;12.410;2022-12-10T12:59:03;10.82;;;7.00;;
55601;SDS011;59921;51.332;12.410;2022-12-10T13:01:40;10.20;;;6.63;;
55601;SDS011;59921;51.332;12.410;2022-12-10T13:04:12;9.65;;;6.55;;
55601;SDS011;59921;51.332;12.410;2022-12-10T13:06:39;9.25;;;6.60;;
55601;SDS011;59921;51.332;12.410;2022-12-10T13:11:41;9.93;;;6.80;;
55601;SDS011;59921;51.332;12.410;2022-12-10T13:40:26;8.88;;;6.13;;
55601;SDS011;59921;51.332;12.410;2022-12-10T13:48:50;8.35;;;6.00;;
55601;SDS011;59921;51.332;12.410;2022-12-10T13:51:26;9.45;;;6.20;;
55601;SDS011;59921;51.332;12.410;2022-12-10T13:54:24;7.85;;;5.80;;
55601;SDS011;59921;51.332;12.410;2022-12-10T13:57:52;8.37;;;6.57;;
55601;SDS011;59921;51.332;12.410;2022-12-10T14:00:17;8.68;;;6.22;;
55601;SDS011;59921;51.332;12.410;2022-12-10T14:05:30;8.32;;;5.50;;
55601;SDS011;59921;51.332;12.410;2022-12-10T14:08:10;8.30;;;5.77;;
55601;SDS011;59921;51.332;12.410;2022-12-10T14:10:42;9.13;;;6.13;;
55601;SDS011;59921;51.332;12.410;2022-12-10T14:13:10;8.48;;;6.10;;
55601;SDS011;59921;51.332;12.410;2022-12-10T14:15:38;8.07;;;5.38;;
55601;SDS011;59921;51.332;12.410;2022-12-10T14:18:13;7.45;;;5.38;;
55601;SDS011;59921;51.332;12.410;2022-12-10T14:20:43;8.40;;;5.90;;
55601;SDS011;59921;51.332;12.410;2022-12-10T14:23:28;8.80;;;5.85;;
55601;SDS011;59921;51.332;12.410;2022-12-10T14:25:58;8.43;;;5.85;;
55601;SDS011;59921;51.332;12.410;2022-12-10T14:28:29;7.57;;;5.57;;
55601;SDS011;59921;51.332;12.410;2022-12-10T14:30:55;8.18;;;5.55;;
55601;SDS011;59921;51.332;12.410;2022-12-10T14:33:21;7.95;;;5.32;;
55601;SDS011;59921;51.332;12.410;2022-12-10T14:35:49;8.10;;;5.70;;
55601;SDS011;59921;51.332;12.410;2022-12-10T14:38:20;7.18;;;5.35;;
55601;SDS011;59921;51.332;12.410;2022-12-10T14:40:50;7.30;;;5.70;;
55601;SDS011;59921;51.332;12.410;2022-12-10T14:43:19;8.77;;;6.03;;
55601;SDS011;59921;51.332;12.410;2022-12-10T14:48:23;7.68;;;5.57;;
55601;SDS011;59921;51.332;12.410;2022-12-10T14:50:49;7.57;;;5.32;;
55601;SDS011;59921;51.332;12.410;2022-12-10T14:53:19;8.32;;;5.47;;
55601;SDS011;59921;51.332;12.410;2022-12-10T14:55:49;7.00;;;5.43;;
55601;SDS011;59921;51.332;12.410;2022-12-10T14:58:37;7.60;;;5.72;;
55601;SDS011;59921;51.332;12.410;2022-12-10T15:01:06;7.18;;;5.45;;
55601;SDS011;59921;51.332;12.410;2022-12-10T15:03:37;8.38;;;6.30;;
55601;SDS011;59921;51.332;12.410;2022-12-10T15:06:09;14.38;;;10.70;;
55601;SDS011;59921;51.332;12.410;2022-12-10T15:08:35;12.85;;;9.68;;
55601;SDS011;59921;51.332;12.410;2022-12-10T15:11:02;15.98;;;9.85;;
55601;SDS011;59921;51.332;12.410;2022-12-10T15:13:37;13.80;;;10.23;;
55601;SDS011;59921;51.332;12.410;2022-12-10T15:16:05;13.30;;;9.30;;
55601;SDS011;59921;51.332;12.410;2022-12-10T15:18:40;14.60;;;9.65;;
55601;SDS011;59921;51.332;12.410;2022-12-10T15:21:11;13.85;;;9.75;;
55601;SDS011;59921;51.332;12.410;2022-12-10T15:23:45;15.02;;;8.98;;
55601;SDS011;59921;51.332;12.410;2022-12-10T15:28:43;11.82;;;8.77;;
55601;SDS011;59921;51.332;12.410;2022-12-10T15:31:13;13.45;;;9.05;;
55601;SDS011;59921;51.332;12.410;2022-12-10T15:34:14;12.55;;;9.20;;
55601;SDS011;59921;51.332;12.410;2022-12-10T15:41:49;11.98;;;8.68;;
55601;SDS011;59921;51.332;12.410;2022-12-10T15:47:17;11.15;;;8.75;;
55601;SDS011;59921;51.332;12.410;2022-12-10T15:49:45;11.85;;;8.63;;
55601;SDS011;59921;51.332;12.410;2022-12-10T15:52:16;10.38;;;8.30;;
55601;SDS011;59921;51.332;12.410;2022-12-10T15:54:47;10.75;;;7.82;;
55601;SDS011;59921;51.332;12.410;2022-12-10T15:57:22;11.63;;;8.18;;
55601;SDS011;59921;51.332;12.410;2022-12-10T15:59:53;10.55;;;7.55;;
55601;SDS011;59921;51.332;12.410;2022-12-10T16:04:57;10.35;;;8.00;;
55601;SDS011;59921;51.332;12.410;2022-12-10T16:07:23;10.23;;;8.00;;
55601;SDS011;59921;51.332;12.410;2022-12-10T16:09:48;11.55;;;7.65;;
55601;SDS011;59921;51.332;12.410;2022-12-10T16:12:14;10.88;;;8.13;;
55601;SDS011;59921;51.332;12.410;2022-12-10T16:14:51;9.95;;;7.95;;
55601;SDS011;59921;51.332;12.410;2022-12-10T16:17:21;10.38;;;7.88;;
55601;SDS011;59921;51.332;12.410;2022-12-10T16:19:47;11.20;;;7.65;;
55601;SDS011;59921;51.332;12.410;2022-12-10T16:22:12;9.95;;;7.35;;
55601;SDS011;59921;51.332;12.410;2022-12-10T16:24:38;10.07;;;7.50;;
55601;SDS011;59921;51.332;12.410;2022-12-10T16:27:11;9.73;;;7.35;;
55601;SDS011;59921;51.332;12.410;2022-12-10T16:29:38;9.95;;;7.63;;
55601;SDS011;59921;51.332;12.410;2022-12-10T16:32:04;9.88;;;7.47;;
55601;SDS011;59921;51.332;12.410;2022-12-10T16:34:29;11.30;;;7.93;;
55601;SDS011;59921;51.332;12.410;2022-12-10T16:36:54;10.32;;;7.43;;
55601;SDS011;59921;51.332;12.410;2022-12-10T16:39:20;10.05;;;7.22;;
55601;SDS011;59921;51.332;12.410;2022-12-10T16:41:51;9.98;;;7.68;;
55601;SDS011;59921;51.332;12.410;2022-12-10T16:44:19;10.02;;;7.20;;
55601;SDS011;59921;51.332;12.410;2022-12-10T16:46:45;9.82;;;7.38;;